Time;durP1;ratioP1;P1;durP2;ratioP2;P2;SDS_P1;SDS_P2;PMS_P1;PMS_P2;Temp;Humidity;BMP_temperature;BMP_pressure;BME280_temperature;BME280_humidity;BME280_pressure;Samples;Min_cycle;Max_cycle;Signal;HPM_P1;HPM_P2
2024/03/01 00:01:23;;;;;;;15.02;8.05;;;;;;;12.36;65.18;100183.19;4980498;28;96763;-89
2024/03/01 00:03:49;;;;;;;16.95;6.85;;;;;;;12.37;65.22;100181.44;4973003;28;96930;-89
2024/03/01 00:06:14;;;;;;;17.38;7.18;;;;;;;12.36;65.17;100177.09;4991789;28;101057;-89
2024/03/01 00:08:40;;;;;;;20.50;7.40;;;;;;;12.37;65.21;100177.09;4983706;28;100249;-87
2024/03/01 00:11:06;;;;;;;15.50;7.78;;;;;;;12.36;65.13;100170.09;4974880;28;97420;-88
2024/03/01 00:13:31;;;;;;;20.17;8.82;;;;;;;12.38;65.38;100176.19;4979159;28;97059;-87
2024/03/01 00:15:57;;;;;;;16.35;7.78;;;;;;;12.41;65.35;100180.56;4975688;28;99900;-87
2024/03/01 00:18:22;;;;;;;18.05;8.27;;;;;;;12.42;65.36;100182.28;4994864;28;99893;-88
2024/03/01 00:20:50;;;;;;;21.10;7.68;;;;;;;12.42;65.15;100176.19;4987434;28;96904;-87
2024/03/01 00:23:16;;;;;;;15.13;6.97;;;;;;;12.43;64.97;100167.47;4996835;28;97007;-87
2024/03/01 00:25:42;;;;;;;14.57;7.93;;;;;;;12.44;65.11;100169.19;4972208;28;99915;-87
2024/03/01 00:28:08;;;;;;;15.05;8.23;;;;;;;12.44;64.96;100171.81;4989365;28;100335;-87
2024/03/01 00:30:33;;;;;;;14.95;7.47;;;;;;;12.44;64.84;100170.09;4983909;28;96820;-87
2024/03/01 00:32:59;;;;;;;14.65;8.40;;;;;;;12.45;64.81;100161.34;4977385;28;96863;-87
2024/03/01 00:35:24;;;;;;;15.00;7.63;;;;;;;12.45;64.82;100163.97;4983154;28;100667;-87
2024/03/01 00:37:51;;;;;;;13.40;8.13;;;;;;;12.44;64.95;100154.38;4973689;28;100200;-88
2024/03/01 00:40:17;;;;;;;17.13;7.03;;;;;;;12.43;64.63;100157.00;4967534;28;96914;-88
2024/03/01 00:42:44;;;;;;;13.50;7.18;;;;;;;12.39;64.58;100148.31;4997712;28;97156;-88
2024/03/01 00:45:10;;;;;;;12.02;6.40;;;;;;;12.40;64.76;100146.56;4975962;28;99343;-88
2024/03/01 00:47:43;;;;;;;14.80;7.53;;;;;;;12.37;64.71;100142.19;4994044;28;100421;-87
2024/03/01 00:50:09;;;;;;;16.02;8.82;;;;;;;12.37;64.61;100150.94;4977955;28;97138;-88
2024/03/01 00:52:34;;;;;;;12.57;6.80;;;;;;;12.37;64.32;100147.44;4984587;28;97052;-88
2024/03/01 00:55:00;;;;;;;13.85;7.47;;;;;;;12.37;64.52;100139.59;4974496;28;100717;-87
2024/03/01 00:57:25;;;;;;;13.65;6.13;;;;;;;12.35;64.70;100136.13;4977794;28;100171;-88
2024/03/01 00:59:50;;;;;;;12.88;7.15;;;;;;;12.35;64.75;100136.13;4979081;28;96973;-88
2024/03/01 01:02:16;;;;;;;14.85;6.70;;;;;;;12.36;64.59;100135.25;4975624;28;96934;-88
2024/03/01 01:04:42;;;;;;;13.93;6.90;;;;;;;12.36;64.91;100132.63;4976857;28;99908;-88
2024/03/01 01:07:07;;;;;;;12.68;6.43;;;;;;;12.35;64.66;100129.16;4971690;28;100038;-88
2024/03/01 01:09:33;;;;;;;14.40;6.60;;;;;;;12.35;64.66;100128.28;4975812;28;96859;-88
2024/03/01 01:12:04;;;;;;;13.95;7.65;;;;;;;12.35;64.66;100128.28;4968937;28;97019;-88
2024/03/01 01:14:30;;;;;;;14.23;6.40;;;;;;;12.35;64.58;100123.94;4977540;28;97607;-88
2024/03/01 01:16:56;;;;;;;13.57;7.22;;;;;;;12.36;64.71;100123.03;4983204;28;99159;-87
2024/03/01 01:19:21;;;;;;;14.27;7.50;;;;;;;12.37;64.59;100118.66;4976276;28;96845;-88
2024/03/01 01:21:47;;;;;;;12.07;6.70;;;;;;;12.36;64.61;100117.81;4973588;28;97032;-88
2024/03/01 01:24:12;;;;;;;11.63;6.15;;;;;;;12.37;64.28;100119.56;5005749;27;99226;-87
2024/03/01 01:26:38;;;;;;;13.25;7.32;;;;;;;12.36;64.43;100115.19;4974525;28;100302;-87
2024/03/01 01:29:04;;;;;;;14.00;7.05;;;;;;;12.36;64.36;100115.19;4973491;28;96957;-89
2024/03/01 01:31:29;;;;;;;10.52;5.95;;;;;;;12.36;64.41;100112.56;4988162;28;96966;-88
2024/03/01 01:33:55;;;;;;;13.63;6.97;;;;;;;12.35;64.33;100108.25;4973558;28;100027;-88
2024/03/01 01:36:21;;;;;;;11.57;6.18;;;;;;;12.35;64.31;100109.97;4993765;28;98640;-87
2024/03/01 01:38:46;;;;;;;12.90;6.82;;;;;;;12.31;64.25;100103.88;4990047;28;97051;-87
2024/03/01 01:41:12;;;;;;;12.23;5.80;;;;;;;12.30;64.27;100098.66;4971462;28;96933;-89
2024/03/01 01:43:42;;;;;;;12.77;7.13;;;;;;;12.30;64.33;100093.44;4988893;28;100006;-88
2024/03/01 01:46:09;;;;;;;11.90;5.95;;;;;;;12.30;64.49;100093.44;4973764;28;99984;-87
2024/03/01 01:48:35;;;;;;;12.30;7.15;;;;;;;12.29;64.21;100092.56;4971523;28;96829;-88
2024/03/01 01:51:01;;;;;;;12.50;6.88;;;;;;;12.30;64.34;100086.47;4995616;28;96983;-88
2024/03/01 01:53:27;;;;;;;13.82;6.30;;;;;;;12.33;64.41;100085.56;4973075;28;100186;-88
2024/03/01 01:55:53;;;;;;;13.63;6.40;;;;;;;12.33;64.21;100081.19;4974011;28;100324;-88
2024/03/01 01:58:19;;;;;;;12.93;6.00;;;;;;;12.33;64.55;100075.97;4975099;28;96970;-88
2024/03/01 02:00:47;;;;;;;11.60;6.53;;;;;;;12.34;64.39;100076.88;4979758;28;97139;-89
2024/03/01 02:03:13;;;;;;;10.38;5.68;;;;;;;12.36;64.43;100072.50;4970376;28;99960;-88
2024/03/01 02:05:40;;;;;;;11.70;5.18;;;;;;;12.38;64.38;100070.72;4996893;28;98960;-88
2024/03/01 02:08:06;;;;;;;12.30;7.20;;;;;;;12.38;64.38;100068.97;4990981;28;96787;-87
2024/03/01 02:10:32;;;;;;;10.95;5.75;;;;;;;12.41;64.25;100065.47;4974562;28;96919;-89
2024/03/01 02:13:00;;;;;;;10.48;5.63;;;;;;;12.44;64.44;100061.97;4971083;28;100479;-87
2024/03/01 02:15:27;;;;;;;10.70;6.22;;;;;;;12.45;64.25;100059.34;4992622;28;97817;-87
2024/03/01 02:17:57;;;;;;;12.05;5.53;;;;;;;12.47;64.16;100048.88;4985413;28;96947;-88
2024/03/01 02:20:26;;;;;;;11.15;5.75;;;;;;;12.49;64.30;100039.25;4976759;28;97063;-87
2024/03/01 02:23:00;;;;;;;9.63;6.10;;;;;;;12.49;64.30;100040.13;4973590;28;100444;-87
2024/03/01 02:25:26;;;;;;;10.20;4.57;;;;;;;12.53;64.17;100025.25;4975394;28;100610;-88
2024/03/01 02:27:52;;;;;;;11.18;5.03;;;;;;;12.55;64.23;100024.38;4975776;28;96951;-87
2024/03/01 02:30:17;;;;;;;11.88;5.43;;;;;;;12.57;64.05;100019.13;4974885;28;96869;-88
2024/03/01 02:32:43;;;;;;;8.93;5.32;;;;;;;12.60;64.08;100019.09;4975046;28;100375;-88
2024/03/01 02:35:08;;;;;;;10.18;5.38;;;;;;;12.59;63.96;100014.75;4998127;28;97814;-87
2024/03/01 02:37:35;;;;;;;10.07;4.90;;;;;;;12.60;63.96;100011.25;4990984;28;96745;-88
2024/03/01 02:40:03;;;;;;;10.02;5.95;;;;;;;12.61;64.08;100010.38;4989754;28;96802;-87
2024/03/01 02:42:33;;;;;;;9.38;4.88;;;;;;;12.63;63.84;100011.22;4982947;28;100323;-88
2024/03/01 02:44:58;;;;;;;;;;;;;;;12.63;64.01;100013.84;4975106;28;99710;-86
2024/03/01 02:47:24;;;;;;;9.57;5.00;;;;;;;12.67;63.95;99997.22;4988806;28;96824;-86
2024/03/01 02:49:49;;;;;;;9.00;5.75;;;;;;;12.67;63.68;99993.75;4990287;28;96884;-87
2024/03/01 02:52:15;;;;;;;8.85;5.18;;;;;;;12.66;63.70;99995.50;4973673;28;99855;-87
2024/03/01 02:54:40;;;;;;;12.18;6.15;;;;;;;12.66;63.80;99998.13;4973328;28;99642;-87
2024/03/01 02:57:06;;;;;;;10.25;5.85;;;;;;;12.64;63.60;99999.88;4970377;28;96923;-87
2024/03/01 02:59:31;;;;;;;11.68;5.97;;;;;;;12.65;63.87;99999.00;4994910;28;96845;-87
2024/03/01 03:01:58;;;;;;;12.93;5.88;;;;;;;12.65;63.58;100004.22;4966730;28;99905;-87
2024/03/01 03:04:24;;;;;;;12.55;5.28;;;;;;;12.66;63.38;100000.75;4991568;28;97821;-87
2024/03/01 03:06:49;;;;;;;10.18;5.57;;;;;;;12.67;63.36;100007.69;4974242;28;96949;-87
2024/03/01 03:09:14;;;;;;;11.52;6.05;;;;;;;12.64;63.16;100006.84;4970826;28;97493;-87
2024/03/01 03:11:40;;;;;;;11.20;5.65;;;;;;;12.55;63.16;100006.06;4983776;28;99942;-88
2024/03/01 03:14:06;;;;;;;11.40;5.55;;;;;;;12.46;63.41;100014.00;4971267;28;100082;-89
2024/03/01 03:16:31;;;;;;;11.40;5.63;;;;;;;12.40;63.46;100014.03;4990130;28;96857;-88
2024/03/01 03:18:57;;;;;;;14.18;7.15;;;;;;;12.31;63.41;100020.22;4980822;28;96985;-88
2024/03/01 03:21:22;;;;;;;13.32;6.80;;;;;;;12.26;63.79;100024.59;4987868;28;97579;-88
2024/03/01 03:23:47;;;;;;;12.50;6.57;;;;;;;12.22;64.04;100020.28;4989960;28;100251;-87
2024/03/01 03:26:13;;;;;;;12.38;5.90;;;;;;;12.21;64.16;100030.75;4986869;28;96776;-87
2024/03/01 03:28:38;;;;;;;12.70;7.32;;;;;;;12.17;64.20;100037.75;4973737;28;96833;-87
2024/03/01 03:31:04;;;;;;;13.43;7.47;;;;;;;12.14;63.99;100048.25;4970985;28;100419;-87
2024/03/01 03:33:30;;;;;;;14.20;6.82;;;;;;;12.11;64.42;100085.72;4989724;28;98248;-88
2024/03/01 03:35:56;;;;;;;6.60;2.92;;;;;;;12.09;64.58;100074.41;4970915;28;97221;-86
2024/03/01 03:38:21;;;;;;;6.10;2.88;;;;;;;12.05;64.22;100084.88;4969870;28;97058;-89
2024/03/01 03:40:47;;;;;;;5.13;2.45;;;;;;;11.99;64.30;100093.63;4972218;28;100578;-86
2024/03/01 03:43:13;;;;;;;4.38;1.42;;;;;;;11.93;64.24;100098.91;4972351;28;100838;-86
2024/03/01 03:45:38;;;;;;;4.78;2.00;;;;;;;11.85;63.77;100100.63;4989656;28;97001;-87
2024/03/01 03:48:05;;;;;;;2.03;1.08;;;;;;;11.74;63.72;100114.59;4987707;28;96910;-86
2024/03/01 03:50:30;;;;;;;4.55;1.80;;;;;;;11.65;63.82;100119.88;4988394;28;100136;-86
2024/03/01 03:52:56;;;;;;;3.17;1.60;;;;;;;11.56;63.57;100131.22;4982004;28;97599;-86
2024/03/01 03:55:21;;;;;;;3.03;1.98;;;;;;;11.46;63.81;100136.47;4971758;28;96785;-86
2024/03/01 03:57:47;;;;;;;1.85;1.10;;;;;;;11.37;63.67;100132.13;4978301;28;96800;-87
2024/03/01 04:00:16;;;;;;;3.22;1.80;;;;;;;11.29;63.52;100131.28;4989648;28;97967;-88
2024/03/01 04:02:43;;;;;;;;;;;;;;;11.16;63.57;100130.44;4989544;28;100074;-87
2024/03/01 04:05:08;;;;;;;4.88;2.08;;;;;;;11.10;63.46;100125.22;4991224;28;96874;-86
2024/03/01 04:07:34;;;;;;;4.07;1.42;;;;;;;11.02;63.65;100144.34;4976522;28;96873;-86
2024/03/01 04:10:00;;;;;;;4.43;2.28;;;;;;;10.99;64.00;100140.88;4973165;28;100726;-86
2024/03/01 04:12:25;;;;;;;3.92;2.60;;;;;;;10.95;63.85;100145.22;4989882;28;97273;-86
2024/03/01 04:14:51;;;;;;;5.40;1.45;;;;;;;10.93;64.11;100143.50;4975419;28;97306;-86
2024/03/01 04:17:16;;;;;;;2.88;1.58;;;;;;;10.91;64.03;100148.72;4990048;28;96888;-86
2024/03/01 04:19:42;;;;;;;2.97;2.00;;;;;;;10.87;63.95;100154.78;4985780;28;100650;-86
2024/03/01 04:22:09;;;;;;;3.75;1.83;;;;;;;10.81;63.91;100158.28;4991951;28;97891;-85
2024/03/01 04:24:34;;;;;;;3.78;1.23;;;;;;;10.76;63.91;100156.53;4987450;28;96848;-86
2024/03/01 04:27:00;;;;;;;3.80;1.15;;;;;;;10.72;63.95;100158.28;4973759;28;96982;-86
2024/03/01 04:29:27;;;;;;;5.95;2.25;;;;;;;10.66;63.94;100166.97;4993713;28;97719;-87
2024/03/01 04:31:53;;;;;;;3.22;1.30;;;;;;;10.61;63.85;100175.66;4978763;28;100563;-85
2024/03/01 04:34:18;;;;;;;6.18;0.95;;;;;;;10.59;64.00;100180.00;4986558;28;97201;-87
2024/03/01 04:36:44;;;;;;;5.00;1.02;;;;;;;10.55;64.02;100179.13;4978713;28;96954;-86
2024/03/01 04:39:11;;;;;;;3.42;1.83;;;;;;;10.52;64.10;100197.38;4972039;28;100359;-86
2024/03/01 04:41:37;;;;;;;3.17;1.10;;;;;;;10.51;64.13;100197.34;4974004;28;100397;-86
2024/03/01 04:44:02;;;;;;;2.20;0.82;;;;;;;10.47;64.10;100197.34;4972288;28;96913;-86
2024/03/01 04:46:28;;;;;;;5.07;0.88;;;;;;;10.46;64.21;100202.53;4989192;28;97148;-88
2024/03/01 04:48:53;;;;;;;3.03;1.00;;;;;;;10.45;64.34;100208.66;4991390;28;97974;-87
2024/03/01 04:51:20;;;;;;;4.35;1.52;;;;;;;10.44;64.15;100217.31;4971107;28;100103;-87
2024/03/01 04:53:46;;;;;;;3.20;1.10;;;;;;;10.41;64.18;100209.47;4984874;28;97017;-87
2024/03/01 04:56:11;;;;;;;2.25;1.00;;;;;;;10.40;64.21;100218.19;4976181;28;97057;-87
2024/03/01 04:58:37;;;;;;;5.00;1.50;;;;;;;10.39;64.31;100229.47;4973820;28;99934;-87
2024/03/01 05:01:03;;;;;;;4.90;1.30;;;;;;;10.41;64.35;100227.72;4991156;28;96905;-88
2024/03/01 05:03:29;;;;;;;5.82;2.00;;;;;;;10.40;64.26;100224.25;4974187;28;96943;-87
2024/03/01 05:05:59;;;;;;;6.05;1.70;;;;;;;10.39;64.22;100225.16;4991004;28;97040;-87
2024/03/01 05:08:25;;;;;;;2.72;1.02;;;;;;;10.39;64.16;100229.47;4969140;28;101300;-87
2024/03/01 05:10:51;;;;;;;9.07;1.45;;;;;;;10.37;64.11;100229.47;4976369;28;99318;-87
2024/03/01 05:13:18;;;;;;;7.72;1.60;;;;;;;10.34;64.24;100232.06;4988956;28;97323;-87
2024/03/01 05:15:48;;;;;;;5.47;1.33;;;;;;;10.34;64.20;100237.28;4969424;28;96901;-88
2024/03/01 05:18:13;;;;;;;;;;;;;;;10.31;64.36;100239.88;4989012;28;99870;-87
2024/03/01 05:20:39;;;;;;;4.72;1.58;;;;;;;10.35;64.19;100240.75;4990339;28;99564;-87
2024/03/01 05:23:05;;;;;;;3.58;2.08;;;;;;;10.33;64.17;100234.66;4969714;28;96897;-87
2024/03/01 05:25:31;;;;;;;5.90;1.40;;;;;;;10.32;64.42;100238.13;4972348;28;96847;-86
2024/03/01 05:27:56;;;;;;;8.40;2.10;;;;;;;10.33;64.26;100242.50;4972176;28;99983;-86
2024/03/01 05:30:26;;;;;;;4.25;1.02;;;;;;;10.34;64.35;100254.66;4975675;28;100475;-87
2024/03/01 05:32:52;;;;;;;7.45;1.52;;;;;;;10.34;64.36;100252.03;4970921;28;96774;-86
2024/03/01 05:35:19;;;;;;;6.00;1.95;;;;;;;10.33;64.46;100261.59;4989988;28;96798;-87
2024/03/01 05:37:46;;;;;;;3.10;1.85;;;;;;;10.33;64.42;100261.59;4972255;28;100179;-87
2024/03/01 05:40:16;;;;;;;6.22;2.08;;;;;;;10.35;64.43;100270.28;4971694;28;99402;-87
2024/03/01 05:42:44;;;;;;;5.43;2.00;;;;;;;10.36;64.29;100266.84;4986073;28;97017;-87
2024/03/01 05:45:11;;;;;;;8.38;1.77;;;;;;;10.37;64.31;100267.69;5009042;27;96850;-88
2024/03/01 05:47:38;;;;;;;6.95;2.08;;;;;;;10.38;64.18;100269.47;4989263;28;97678;-87
2024/03/01 05:50:05;;;;;;;5.40;1.67;;;;;;;10.38;64.20;100272.94;4967025;28;100446;-86
2024/03/01 05:52:32;;;;;;;5.80;2.22;;;;;;;10.37;64.33;100265.09;4997969;28;96833;-88
2024/03/01 05:54:57;;;;;;;5.93;1.65;;;;;;;10.37;64.06;100268.56;4979194;28;96886;-89
2024/03/01 05:57:23;;;;;;;5.57;1.90;;;;;;;10.36;63.80;100265.97;4994787;28;100254;-89
2024/03/01 05:59:50;;;;;;;5.10;2.65;;;;;;;10.34;64.02;100267.69;4995168;28;99867;-90
2024/03/01 06:02:15;;;;;;;5.57;2.65;;;;;;;10.32;63.82;100275.53;4993380;28;97104;-89
2024/03/01 06:04:42;;;;;;;7.03;2.47;;;;;;;10.32;63.82;100278.13;4978606;28;96870;-89
2024/03/01 06:07:08;;;;;;;5.68;2.47;;;;;;;10.30;63.99;100282.41;4976926;28;100448;-86
2024/03/01 06:09:33;;;;;;;5.55;2.65;;;;;;;10.27;63.50;100287.63;4973228;28;99102;-87
2024/03/01 06:11:59;;;;;;;7.20;1.95;;;;;;;10.24;63.48;100288.47;4975380;28;96851;-88
2024/03/01 06:14:24;;;;;;;6.78;2.40;;;;;;;10.21;63.44;100298.91;4989801;28;96887;-87
2024/03/01 06:16:51;;;;;;;8.45;2.88;;;;;;;10.18;63.51;100292.75;4971539;28;99778;-87
2024/03/01 06:19:17;;;;;;;5.32;2.78;;;;;;;10.16;63.44;100299.72;4967161;28;100989;-86
2024/03/01 06:21:43;;;;;;;8.38;2.80;;;;;;;10.13;63.46;100305.78;4988337;28;96858;-87
2024/03/01 06:24:08;;;;;;;7.47;2.83;;;;;;;10.09;63.25;100315.31;4971047;28;97035;-87
2024/03/01 06:26:34;;;;;;;8.02;3.55;;;;;;;10.05;63.29;100313.56;4986963;28;97766;-87
2024/03/01 06:29:01;;;;;;;6.53;3.13;;;;;;;10.01;63.21;100317.00;4972535;28;99339;-87
2024/03/01 06:31:27;;;;;;;10.00;3.15;;;;;;;9.96;63.58;100323.03;4989419;28;96921;-87
2024/03/01 06:33:52;;;;;;;8.80;2.90;;;;;;;9.93;63.50;100323.00;4973110;28;96855;-87
2024/03/01 06:36:18;;;;;;;11.13;3.08;;;;;;;9.90;63.59;100323.88;4992971;28;100565;-87
2024/03/01 06:38:43;;;;;;;7.47;2.80;;;;;;;9.87;63.72;100324.72;4969920;28;100038;-87
2024/03/01 06:41:09;;;;;;;7.30;2.95;;;;;;;9.86;63.61;100329.94;4970899;28;96794;-87
2024/03/01 06:43:34;;;;;;;8.57;3.30;;;;;;;9.85;63.45;100336.00;4987651;28;97008;-86
2024/03/01 06:46:03;;;;;;;7.05;2.45;;;;;;;9.83;63.61;100337.72;4970429;28;100463;-86
2024/03/01 06:48:29;;;;;;;8.25;2.92;;;;;;;9.81;63.55;100337.72;4969166;28;99138;-88
2024/03/01 06:50:54;;;;;;;4.82;2.17;;;;;;;9.80;63.54;100337.69;4989879;28;97074;-89
2024/03/01 06:53:20;;;;;;;3.92;1.98;;;;;;;9.80;63.40;100348.97;4967014;28;97990;-88
2024/03/01 06:55:45;;;;;;;4.88;2.90;;;;;;;9.81;63.61;100344.66;4966732;28;100350;-88
2024/03/01 06:58:11;;;;;;;6.30;3.15;;;;;;;9.81;63.53;100339.44;4969247;28;100755;-88
2024/03/01 07:00:36;;;;;;;4.75;2.38;;;;;;;9.80;63.58;100350.72;4970427;28;96826;-88
2024/03/01 07:03:02;;;;;;;4.60;2.72;;;;;;;9.78;63.54;100342.03;4970755;28;96956;-88
2024/03/01 07:05:29;;;;;;;7.68;3.20;;;;;;;9.78;63.32;100344.63;4972005;28;99949;-87
2024/03/01 07:07:55;;;;;;;5.05;2.75;;;;;;;9.77;63.43;100343.75;4984656;28;101128;-87
2024/03/01 07:10:21;;;;;;;5.38;3.00;;;;;;;9.77;63.43;100354.19;4985417;28;96923;-86
2024/03/01 07:12:47;;;;;;;9.30;3.42;;;;;;;9.76;63.42;100347.22;4990287;28;97191;-87
2024/03/01 07:15:13;;;;;;;7.68;3.13;;;;;;;9.74;63.35;100343.72;4988417;28;100262;-87
2024/03/01 07:17:40;;;;;;;5.28;2.85;;;;;;;9.75;63.34;100340.28;4985333;28;100980;-87
2024/03/01 07:20:06;;;;;;;4.95;2.60;;;;;;;9.75;63.38;100342.00;4974034;28;96838;-87
2024/03/01 07:22:31;;;;;;;5.95;2.90;;;;;;;9.74;63.37;100346.34;4999466;28;96881;-87
2024/03/01 07:24:57;;;;;;;5.47;2.45;;;;;;;9.75;63.54;100349.81;4970549;28;100465;-87
2024/03/01 07:27:22;;;;;;;9.25;2.65;;;;;;;9.76;63.51;100343.75;4971543;28;99899;-87
2024/03/01 07:29:48;;;;;;;8.25;3.13;;;;;;;9.76;63.71;100341.16;4972503;28;96799;-87
2024/03/01 07:32:13;;;;;;;7.40;3.35;;;;;;;9.76;63.70;100339.41;4970228;28;96857;-87
2024/03/01 07:34:39;;;;;;;7.88;2.97;;;;;;;9.81;63.70;100344.66;4971583;28;100153;-87
2024/03/01 07:37:04;;;;;;;8.32;2.88;;;;;;;9.84;63.80;100342.94;4972271;28;100140;-87
2024/03/01 07:39:30;;;;;;;5.25;2.72;;;;;;;9.87;63.76;100340.34;4975283;28;96997;-87
2024/03/01 07:41:57;;;;;;;6.72;3.03;;;;;;;9.88;63.60;100349.06;4989805;28;97079;-87
2024/03/01 07:44:23;;;;;;;9.70;3.55;;;;;;;9.90;63.89;100347.31;4981428;28;97565;-87
2024/03/01 07:46:55;;;;;;;7.30;2.92;;;;;;;9.95;64.16;100345.63;4987755;28;100773;-87
2024/03/01 07:49:21;;;;;;;10.30;3.78;;;;;;;10.03;64.34;100356.97;4978300;28;96929;-88
2024/03/01 07:51:49;;;;;;;8.02;3.75;;;;;;;10.13;64.17;100351.84;4975432;28;96877;-87
2024/03/01 07:54:14;;;;;;;11.63;4.90;;;;;;;10.18;64.21;100350.09;4972691;28;100159;-87
2024/03/01 07:56:40;;;;;;;8.65;4.55;;;;;;;10.25;64.10;100354.53;4965582;28;100688;-87
2024/03/01 07:59:07;;;;;;;13.65;4.50;;;;;;;10.34;64.89;100346.78;4965369;28;96920;-86
2024/03/01 08:01:33;;;;;;;11.65;5.65;;;;;;;10.49;64.94;100345.97;4972408;28;96883;-86
2024/03/01 08:03:59;;;;;;;12.45;5.10;;;;;;;10.61;64.83;100351.25;4970525;28;100394;-86
2024/03/01 08:06:24;;;;;;;10.73;5.57;;;;;;;10.74;65.04;100341.72;4986892;28;97928;-86
2024/03/01 08:08:50;;;;;;;13.48;6.18;;;;;;;10.89;64.42;100334.81;4984112;28;96980;-86
2024/03/01 08:11:37;;;;;;;12.27;5.38;;;;;;;10.95;63.37;100334.88;4964972;28;96906;-87
2024/03/01 08:14:05;;;;;;;15.27;6.22;;;;;;;10.96;63.49;100332.25;4980534;28;99197;-86
2024/03/01 08:16:31;;;;;;;13.15;5.35;;;;;;;11.02;63.36;100339.22;4983214;28;97523;-86
2024/03/01 08:18:57;;;;;;;13.43;5.10;;;;;;;11.11;63.71;100347.06;4988469;28;96889;-87
2024/03/01 08:21:22;;;;;;;14.10;5.65;;;;;;;11.28;64.20;100354.94;4988037;28;97011;-87
2024/03/01 08:23:48;;;;;;;14.55;6.03;;;;;;;11.48;64.36;100341.03;4970906;28;100058;-87
2024/03/01 08:26:22;;;;;;;16.27;6.07;;;;;;;11.58;63.17;100348.88;4972198;28;100334;-87
2024/03/01 08:28:50;;;;;;;13.82;6.18;;;;;;;11.65;62.76;100349.75;4995775;28;96773;-87
2024/03/01 08:31:28;;;;;;;16.30;9.13;;;;;;;11.65;62.11;100352.34;4985606;28;97155;-87
2024/03/01 08:34:10;;;;;;;20.83;7.80;;;;;;;11.70;62.90;100365.44;4998214;28;100678;-86
2024/03/01 08:36:39;;;;;;;17.83;8.50;;;;;;;11.88;63.92;100370.66;4966764;28;99127;-87
2024/03/01 08:39:10;;;;;;;18.35;8.38;;;;;;;12.00;63.21;100370.69;4969930;28;96983;-87
2024/03/01 08:41:38;;;;;;;16.02;8.32;;;;;;;12.08;62.63;100352.34;4970323;28;96856;-87
2024/03/01 08:44:25;;;;;;;19.10;9.07;;;;;;;12.15;62.22;100356.72;4967963;28;100282;-87
2024/03/01 08:46:51;;;;;;;15.40;8.57;;;;;;;12.25;61.69;100361.94;4991198;28;97558;-87
2024/03/01 08:49:39;;;;;;;17.42;8.57;;;;;;;12.29;61.81;100359.31;4991702;28;97486;-87
2024/03/01 08:52:37;;;;;;;14.07;7.38;;;;;;;12.30;61.25;100355.81;4971239;28;96990;-86
2024/03/01 08:55:09;;;;;;;16.23;9.05;;;;;;;12.29;60.61;100359.31;4987221;28;100944;-88
2024/03/01 08:57:36;;;;;;;16.15;7.05;;;;;;;12.31;60.99;100354.94;4991844;28;97461;-87
2024/03/01 09:00:04;;;;;;;13.38;8.27;;;;;;;12.36;60.44;100373.25;4990030;28;96888;-87
2024/03/01 09:02:48;;;;;;;14.95;6.80;;;;;;;12.37;60.50;100372.34;4975626;28;97747;-87
2024/03/01 09:05:14;;;;;;;15.45;7.35;;;;;;;12.43;60.87;100363.63;4968700;28;100804;-87
2024/03/01 09:07:41;;;;;;;14.02;6.50;;;;;;;12.49;60.62;100350.53;4988427;28;100307;-87
2024/03/01 09:10:25;;;;;;;15.02;6.75;;;;;;;12.49;59.87;100356.63;4974500;28;96915;-88
2024/03/01 09:12:51;;;;;;;14.25;5.38;;;;;;;12.44;59.12;100347.94;4973682;28;97144;-86
2024/03/01 09:15:21;;;;;;;12.32;7.20;;;;;;;12.33;59.07;100347.94;4972067;28;100650;-87
2024/03/01 09:17:47;;;;;;;14.90;7.47;;;;;;;12.27;59.50;100349.72;4978300;28;100258;-87
2024/03/01 09:20:44;;;;;;;12.60;5.78;;;;;;;12.23;59.80;100351.47;4958350;28;96820;-87
2024/03/01 09:23:13;;;;;;;13.73;5.78;;;;;;;12.28;59.27;100356.69;4990014;28;96986;-87
2024/03/01 09:25:47;;;;;;;16.20;6.85;;;;;;;12.28;59.19;100356.69;4970058;28;101089;-86
2024/03/01 09:28:17;;;;;;;17.35;7.00;;;;;;;12.32;59.64;100345.38;4955256;28;97444;-87
2024/03/01 09:30:50;;;;;;;10.88;6.25;;;;;;;12.39;59.32;100341.84;4938972;28;96951;-87
2024/03/01 09:33:17;;;;;;;14.82;6.25;;;;;;;12.45;59.36;100333.97;4938628;28;97185;-87
2024/03/01 09:35:43;;;;;;;19.25;6.13;;;;;;;12.49;58.85;100346.16;4936752;28;100450;-88
2024/03/01 09:38:11;;;;;;;12.65;6.70;;;;;;;12.46;58.39;100340.06;4952568;28;99552;-86
2024/03/01 09:40:54;;;;;;;12.90;6.97;;;;;;;12.43;58.77;100334.88;4939442;28;97454;-87
2024/03/01 09:43:40;;;;;;;13.45;5.93;;;;;;;12.47;59.00;100328.75;4952201;28;97500;-87
2024/03/01 09:46:24;;;;;;;11.13;6.13;;;;;;;12.52;58.71;100324.38;4934052;28;100272;-86
2024/03/01 09:49:11;;;;;;;10.65;5.30;;;;;;;12.55;58.95;100330.47;4931844;28;97504;-87
2024/03/01 09:51:54;;;;;;;11.68;4.70;;;;;;;12.57;58.32;100322.59;4935088;28;98330;-88
2024/03/01 09:54:40;;;;;;;10.52;4.60;;;;;;;12.60;58.60;100329.56;4958978;28;97000;-87
2024/03/01 09:57:21;;;;;;;15.15;5.53;;;;;;;12.60;58.20;100325.19;4918795;28;99665;-87
2024/03/01 10:00:11;;;;;;;10.07;5.13;;;;;;;12.66;58.32;100327.78;4923106;28;100335;-87
2024/03/01 10:03:07;;;;;;;11.50;5.13;;;;;;;12.74;58.84;100327.75;4953697;28;97214;-87
2024/03/01 10:05:42;;;;;;;10.25;3.88;;;;;;;12.79;57.74;100327.75;4934847;28;96920;-88
2024/03/01 10:08:17;;;;;;;8.95;4.32;;;;;;;12.72;57.42;100333.00;4937727;28;99807;-88
2024/03/01 10:11:12;;;;;;;12.70;4.85;;;;;;;12.63;57.02;100327.81;4934402;28;100112;-87
2024/03/01 10:14:10;;;;;;;11.45;4.20;;;;;;;12.50;57.38;100319.13;4940403;28;97373;-87
2024/03/01 10:16:54;;;;;;;14.05;4.82;;;;;;;12.48;57.70;100320.03;4931933;28;96990;-87
2024/03/01 10:19:58;;;;;;;14.30;3.78;;;;;;;12.48;57.46;100317.41;4946695;28;100269;-89
2024/03/01 10:23:00;;;;;;;9.88;4.22;;;;;;;12.49;57.55;100304.31;5004399;28;97991;-87
2024/03/01 10:25:58;;;;;;;12.15;3.97;;;;;;;12.56;57.58;100299.94;4973117;28;96923;-85
2024/03/01 10:28:48;;;;;;;10.27;4.32;;;;;;;12.61;57.22;100297.31;4973603;28;97010;-88
2024/03/01 10:31:32;;;;;;;9.27;3.95;;;;;;;12.65;56.87;100293.78;4951990;28;100471;-87
2024/03/01 10:34:31;;;;;;;9.07;4.18;;;;;;;12.62;56.43;100293.78;4980105;28;100196;-87
2024/03/01 10:37:05;;;;;;;10.25;4.22;;;;;;;12.55;56.46;100287.75;4976072;28;96843;-91
2024/03/01 10:39:53;;;;;;;10.27;4.13;;;;;;;12.49;57.14;100272.91;4991684;28;96908;-89
2024/03/01 10:42:25;;;;;;;11.00;4.72;;;;;;;12.63;58.14;100256.28;4957753;28;100239;-90
2024/03/01 10:45:04;;;;;;;8.20;4.25;;;;;;;12.85;57.92;100252.69;4970485;28;100389;-89
2024/03/01 10:47:31;;;;;;;9.38;4.22;;;;;;;13.07;58.00;100256.03;4956677;28;97468;-89
2024/03/01 10:50:22;;;;;;;7.85;4.10;;;;;;;13.22;57.29;100246.31;4972511;28;96914;-86
2024/03/01 10:52:50;;;;;;;9.32;3.42;;;;;;;13.40;57.26;100247.94;4956665;28;100847;-87
2024/03/01 10:55:22;;;;;;;7.78;3.97;;;;;;;13.69;57.53;100245.94;4956367;28;100518;-89
2024/03/01 10:58:08;;;;;;;8.18;4.60;;;;;;;14.02;57.32;100251.69;4967384;28;96993;-87
2024/03/01 11:00:54;;;;;;;9.70;4.90;;;;;;;14.22;55.93;100233.09;4935457;28;97116;-88
2024/03/01 11:03:40;;;;;;;8.95;4.28;;;;;;;14.52;56.18;100212.59;4965136;28;99497;-87
2024/03/01 11:06:35;;;;;;;8.68;4.03;;;;;;;14.87;55.65;100220.91;4962911;28;100365;-87
2024/03/01 11:09:05;;;;;;;11.10;4.72;;;;;;;15.29;55.12;100216.72;4930676;28;97051;-89
2024/03/01 11:11:50;;;;;;;7.43;3.97;;;;;;;15.26;53.78;100202.75;4955516;28;96969;-89
2024/03/01 11:14:17;;;;;;;8.00;4.97;;;;;;;15.09;52.82;100197.78;4966073;28;100347;-88
2024/03/01 11:16:47;;;;;;;7.30;4.65;;;;;;;15.01;53.13;100205.81;4978749;28;100116;-86
2024/03/01 11:19:18;;;;;;;7.30;4.90;;;;;;;15.02;53.36;100195.25;4961011;28;96848;-88
2024/03/01 11:21:48;;;;;;;9.30;4.88;;;;;;;15.22;52.80;100209.81;4951336;28;97062;-87
2024/03/01 11:24:35;;;;;;;7.05;5.15;;;;;;;15.16;51.92;100194.19;4954513;28;100498;-89
2024/03/01 11:27:04;;;;;;;7.47;4.78;;;;;;;15.19;51.43;100191.50;4951766;28;100649;-88
2024/03/01 11:29:38;;;;;;;7.55;4.93;;;;;;;15.22;51.34;100196.69;4932830;28;97030;-89